Texas General Land Office
 Texas General Land Office
 George P. Bush, Commissioner

 Oil Spill Prevention
 & Response

Texas Automated Buoy System
Real Time Ocean Observations
Supporting Oil Spill Prevention and
Response since 1995
Geochemical and Environmental Research Group

Please note that due to communication problems some data are a day or more old.

NOAA - NDBC Buoy 42020 -- Texas Automated Buoy System

NBDC Buoy 42020
Corpus Christi, TX
Conditions at 08/17/2019 10:30 UTC (08/17/2019 05:30 CDT)
26° 57.0000'N   96° 42.0000'W
50nm Southeast of Corpus Christi, TX
Anemometer height: 5m
Water Depth: 252 feet (77 meters)
Wind: 8.0 m/s (15.6 kts)
          From 180°T (S)
Wind Gust: 10.00 m/s (19.4 kts) Pressure: 1011.5 mb (29.87 inHg)
Air Temp: 30°C (86 °F) Dewpoint: 27°C (80°F) Relative Humidity: 84%
Sea Surf Temp: 30 °C (86 °F) Wave Height: -99.0m (-324.8 ft) Wave Period: -99
  


IMPORTANT: Notice to Mariners


   Date      Time    Speed     Dir   Gust    AtmPr   AirT   DewPt   WaterT  RelH  WvHt  WvPer
          |  (UTC) | (m/s) |  (°T) | (m/s) |  (mb) |  (°C) |  (°C) |  (°C) | (%) | (m) | (s) |
==========+========+=======+=======+=======+=======+=======+=======+=======+=====+=====+=====+
08/17/2019 00:00:00     7.0     120     9.0 1010.90    30.4    26.5    30.1    79 -99.0  -99
08/17/2019 00:10:00     7.0     130     9.0 1010.80    30.3    26.7    30.1    81 -99.0  -99
08/17/2019 00:20:00     7.0     130     9.0 1010.80    30.2    26.9    30.1    82 -99.0  -99
08/17/2019 00:30:00     7.0     130     9.0 1011.00    30.2    27.0    30.1    83 -99.0  -99
08/17/2019 00:40:00     8.0     130     9.0 1011.00    30.2    26.8    30.0    82 -99.0  -99
08/17/2019 00:50:00     8.0     140     9.0 1011.00    30.2    26.6    30.0    81   0.6    3
08/17/2019 01:00:00     8.0     140    10.0 1010.80    30.2    26.8    30.0    82 -99.0  -99
08/17/2019 01:10:00     8.0     140    10.0 1010.90    30.1    26.8    30.0    82 -99.0  -99
08/17/2019 01:20:00     8.0     140    10.0 1010.90    30.1    26.8    30.0    82 -99.0  -99
08/17/2019 01:30:00     8.0     140    10.0 1011.00    30.1    26.9    30.0    83 -99.0  -99
08/17/2019 01:40:00     9.0     140    10.0 1011.00    30.1    26.8    29.9    82 -99.0  -99
08/17/2019 01:50:00     8.0     140    10.0 1011.20    30.1    26.9    29.9    83   0.7    3
08/17/2019 02:00:00     9.0     140    10.0 1011.00    30.1    26.9    29.9    83 -99.0  -99
08/17/2019 02:10:00     8.0     140    10.0 1011.30    30.2    27.0    29.9    83 -99.0  -99
08/17/2019 02:20:00     9.0     140    10.0 1011.30    30.2    26.8    29.9    82 -99.0  -99
08/17/2019 02:30:00     9.0     140    11.0 1011.30    30.2    26.9    29.9    82 -99.0  -99
08/17/2019 02:40:00     9.0     140    10.0 1011.50    30.2    27.1    29.9    83   0.8  -99
08/17/2019 02:50:00     9.0     150    11.0 1011.50    30.1    26.9    29.9    83   0.8    4
08/17/2019 03:00:00     8.0     150    10.0 1011.70    30.2    26.9    29.9    82 -99.0  -99
08/17/2019 03:10:00     9.0     140    10.0 1011.80   -99.0   -99.0    29.9   100 -99.0  -99
08/17/2019 03:20:00     9.0     150    10.0 1011.80    30.2    26.9    29.9    82 -99.0  -99
08/17/2019 03:30:00     9.0     150    10.0 1011.90    30.2    27.0    29.9    83 -99.0  -99
08/17/2019 03:40:00     9.0     150    10.0 1012.00    30.2    27.1    29.9    83 -99.0  -99
08/17/2019 03:50:00     8.0     150    11.0 1012.10    30.1    27.3    29.9    85   0.9    4
08/17/2019 04:00:00    10.0     150    11.0 1012.10    30.2    26.8    29.9    82 -99.0  -99
08/17/2019 04:10:00     9.0     150    11.0 1012.10    30.2    27.2    29.8    84 -99.0  -99
08/17/2019 04:20:00    10.0     150    11.0 1012.10    30.1    26.7    29.8    82 -99.0  -99
08/17/2019 04:30:00     9.0     150    11.0 1012.30    30.2    26.8    29.8    82 -99.0  -99
08/17/2019 04:40:00     9.0     150    11.0 1012.30    30.2    26.9    29.8    82 -99.0  -99
08/17/2019 04:50:00     9.0     150    11.0 1012.40    30.2    27.0    29.8    83   1.0    4
08/17/2019 05:00:00    10.0     160    12.0 1012.40    30.2    26.9    29.8    82 -99.0  -99
08/17/2019 05:10:00     9.0     160    11.0 1012.40    30.2    27.1    29.8    83 -99.0  -99
08/17/2019 05:20:00     9.0     160    11.0 1012.40    30.1    27.1    29.8    84 -99.0  -99
08/17/2019 05:30:00     9.0     160    12.0 1012.40    30.2    27.0    29.8    83 -99.0  -99
08/17/2019 05:40:00     9.0     160    11.0 1012.40    30.1    27.1    29.8    84 -99.0  -99
08/17/2019 05:50:00     9.0     150    11.0 1012.40    30.1    27.3    29.7    85   1.0    4
08/17/2019 06:00:00     9.0     160    12.0 1012.30    30.1    27.4    29.7    85 -99.0  -99
08/17/2019 06:10:00     9.0     160    11.0 1012.30    30.0    27.2    29.7    85 -99.0  -99
08/17/2019 06:20:00     9.0     160    12.0 1012.30    30.1    27.1    29.7    84 -99.0  -99
08/17/2019 06:30:00     9.0     160    11.0 1012.20    30.0    27.1    29.7    84 -99.0  -99
08/17/2019 06:40:00     9.0     160    10.0 1012.30    30.0    27.2    29.7    85 -99.0  -99
08/17/2019 06:50:00     8.0     170    10.0 1012.30    30.0    27.4    29.7    86   1.0    4
08/17/2019 07:00:00     8.0     170    10.0 1012.30    29.9    27.3    29.7    86 -99.0  -99
08/17/2019 07:10:00     9.0     170    10.0 1012.30    29.9    27.1    29.7    85 -99.0  -99
08/17/2019 07:20:00     9.0     170    10.0 1012.30    29.9    27.1    29.7    85 -99.0  -99
08/17/2019 07:30:00     9.0     170    11.0 1012.20    29.9    27.0    29.7    84 -99.0  -99
08/17/2019 07:40:00     8.0     170    10.0 1012.10    29.9    27.2    29.7    85 -99.0  -99
08/17/2019 07:50:00     9.0     170    11.0 1012.00    29.9    27.2    29.7    85   1.0    4
08/17/2019 08:00:00     9.0     170    11.0 1012.00    29.9    27.3    29.7    86 -99.0  -99
08/17/2019 08:10:00     9.0     170    11.0 1011.90    29.9    27.3    29.7    86 -99.0  -99
08/17/2019 08:20:00     9.0     170    11.0 1011.80    29.8    27.2    29.7    86 -99.0  -99
08/17/2019 08:30:00     9.0     170    12.0 1011.80    29.8    27.0    29.7    85 -99.0  -99
08/17/2019 08:40:00     9.0     170    10.0 1011.80    29.9    27.0    29.7    84 -99.0  -99
08/17/2019 08:50:00     8.0     170    10.0 1011.80    29.9    27.0    29.7    84   0.9    4
08/17/2019 09:00:00     8.0     170    10.0 1011.80    29.8    27.0    29.7    85 -99.0  -99
08/17/2019 09:10:00     8.0     170    10.0 1011.80    29.8    27.0    29.7    85 -99.0  -99
08/17/2019 09:20:00     8.0     180    10.0 1011.70    29.8    27.0    29.7    85 -99.0  -99
08/17/2019 09:30:00     8.0     180    10.0 1011.50    29.8    27.0    29.7    85 -99.0  -99
08/17/2019 09:40:00     8.0     180    10.0 1011.60    29.7    27.1    29.7    86 -99.0  -99
08/17/2019 09:50:00     8.0     180     9.0 1011.70    29.7    27.1   -99.0    86   0.9    4
08/17/2019 10:00:00     8.0     180    10.0 1011.60    29.8    27.0   -99.0    85 -99.0  -99
08/17/2019 10:10:00     8.0     180    10.0 1011.50    29.7    26.9    29.7    85 -99.0  -99
08/17/2019 10:20:00     8.0     180    10.0 1011.50    29.7    26.9    29.7    85 -99.0  -99
08/17/2019 10:30:00     8.0     180    10.0 1011.50    29.8    26.9    29.8    84 -99.0  -99